Time;durP1;ratioP1;P1;durP2;ratioP2;P2;SDS_P1;SDS_P2;PMS_P1;PMS_P2;Temp;Humidity;BMP_temperature;BMP_pressure;BME280_temperature;BME280_humidity;BME280_pressure;Samples;Min_cycle;Max_cycle;Signal;HPM_P1;HPM_P2
2022/02/23 00:01:00;;;;;;;12.65;7.83;;;;;;;2.69;60.27;99845.02;1665592;86;21010;-77
2022/02/23 00:03:27;;;;;;;14.55;8.30;;;;;;;2.66;60.34;99848.27;1666396;84;21882;-77
2022/02/23 00:05:53;;;;;;;13.30;8.13;;;;;;;2.59;60.45;99845.15;1674590;84;21007;-77
2022/02/23 00:08:20;;;;;;;17.48;10.30;;;;;;;2.51;60.63;99846.90;1690102;84;20994;-77
2022/02/23 00:10:47;;;;;;;17.60;10.18;;;;;;;2.46;60.76;99845.45;1665550;86;21049;-77
2022/02/23 00:13:13;;;;;;;19.77;11.35;;;;;;;2.44;60.81;99849.91;1668245;84;20947;-77
2022/02/23 00:15:40;;;;;;;22.07;12.50;;;;;;;2.40;60.89;99849.22;1681209;84;21830;-77
2022/02/23 00:18:15;;;;;;;19.27;11.80;;;;;;;2.32;61.01;99850.55;1681445;84;21033;-76
2022/02/23 00:20:42;;;;;;;19.32;11.40;;;;;;;2.26;61.15;99849.13;1673484;84;20954;-77
2022/02/23 00:23:08;;;;;;;22.13;12.15;;;;;;;2.19;61.32;99846.47;1666060;84;21009;-77
2022/02/23 00:25:35;;;;;;;20.17;12.15;;;;;;;2.13;61.43;99855.47;1665655;85;21060;-78
2022/02/23 00:28:01;;;;;;;22.05;12.33;;;;;;;2.10;61.53;99853.00;1666153;84;21815;-78
2022/02/23 00:30:30;;;;;;;23.42;13.00;;;;;;;2.08;61.56;99858.77;1672653;84;21564;-78
2022/02/23 00:32:56;;;;;;;21.25;13.08;;;;;;;2.05;61.66;99856.33;1677298;84;21524;-78
2022/02/23 00:35:23;;;;;;;21.42;12.33;;;;;;;2.04;61.71;99859.02;1693484;82;21031;-78
2022/02/23 00:37:49;;;;;;;20.05;11.38;;;;;;;2.04;61.78;99862.47;1673618;84;21459;-77
2022/02/23 00:40:15;;;;;;;16.65;9.70;;;;;;;2.01;61.86;99862.61;1666130;84;22836;-77
2022/02/23 00:42:42;;;;;;;20.85;10.40;;;;;;;1.98;61.92;99863.61;1665982;84;20962;-78
2022/02/23 00:45:09;;;;;;;17.35;10.15;;;;;;;1.93;62.07;99867.36;1679697;84;21436;-77
2022/02/23 00:47:37;;;;;;;16.90;9.18;;;;;;;1.91;62.13;99866.61;1673264;84;20966;-77
2022/02/23 00:50:05;;;;;;;16.00;9.90;;;;;;;1.90;62.19;99880.09;1693555;84;20970;-76
2022/02/23 00:52:33;;;;;;;20.50;9.28;;;;;;;1.89;62.18;99877.11;1668471;84;21870;-77
2022/02/23 00:54:59;;;;;;;18.70;9.45;;;;;;;1.88;62.20;99881.10;1675943;84;21469;-77
2022/02/23 00:57:26;;;;;;;15.45;8.23;;;;;;;1.86;62.22;99885.09;1666719;84;21014;-78
2022/02/23 00:59:52;;;;;;;14.18;7.72;;;;;;;1.83;62.26;99885.23;1681230;84;20962;-77
2022/02/23 01:02:19;;;;;;;13.45;8.28;;;;;;;1.79;62.37;99894.13;1669531;84;21045;-77
2022/02/23 01:04:46;;;;;;;15.28;8.08;;;;;;;1.76;62.49;99894.75;1673874;84;21914;-78
2022/02/23 01:07:14;;;;;;;17.30;8.90;;;;;;;1.69;62.59;99885.94;1692713;84;21104;-77
2022/02/23 01:09:42;;;;;;;15.38;8.90;;;;;;;1.69;62.63;99891.61;1672344;84;21425;-78
2022/02/23 01:12:10;;;;;;;15.88;8.55;;;;;;;1.68;62.64;99888.63;1660466;84;21401;-78
2022/02/23 01:14:36;;;;;;;14.25;7.62;;;;;;;1.65;62.68;99892.70;1683977;84;20998;-77
2022/02/23 01:17:04;;;;;;;15.30;8.58;;;;;;;1.59;62.80;99896.90;1678265;84;21813;-78
2022/02/23 01:19:31;;;;;;;14.50;8.33;;;;;;;1.55;62.90;99900.13;1688058;84;21041;-77
2022/02/23 01:21:57;;;;;;;15.68;8.75;;;;;;;1.55;62.93;99898.83;1668282;84;21049;-78
2022/02/23 01:24:24;;;;;;;15.60;8.55;;;;;;;1.55;62.94;99892.78;1666024;84;21252;-78
2022/02/23 01:26:51;;;;;;;14.28;8.68;;;;;;;1.56;62.97;99899.66;1676106;84;21014;-78
2022/02/23 01:29:17;;;;;;;12.63;7.87;;;;;;;1.52;63.03;99901.56;1666667;84;22439;-78
2022/02/23 01:31:43;;;;;;;14.28;8.40;;;;;;;1.47;63.12;99902.72;1666455;84;21472;-77
2022/02/23 01:34:10;;;;;;;13.10;8.00;;;;;;;1.40;63.21;99899.57;1681059;84;21090;-77
2022/02/23 01:36:38;;;;;;;14.50;8.50;;;;;;;1.36;63.37;99896.75;1690480;82;21002;-78
2022/02/23 01:39:05;;;;;;;15.48;8.33;;;;;;;1.36;63.37;99909.30;1671677;84;21006;-78
2022/02/23 01:41:31;;;;;;;15.83;8.08;;;;;;;1.35;63.42;99908.92;1666258;84;21735;-78
2022/02/23 01:43:57;;;;;;;14.47;7.55;;;;;;;1.32;63.49;99914.71;1672446;84;21045;-78
2022/02/23 01:46:26;;;;;;;15.88;8.45;;;;;;;1.28;63.64;99911.42;1666052;84;21029;-78
2022/02/23 01:48:52;;;;;;;15.88;9.63;;;;;;;1.25;63.76;99908.11;1665608;84;21543;-78
2022/02/23 01:51:19;;;;;;;19.20;10.23;;;;;;;1.20;63.93;99909.66;1666017;84;21516;-78
2022/02/23 01:53:45;;;;;;;22.40;13.35;;;;;;;1.17;64.14;99912.88;1667502;84;21478;-78
2022/02/23 01:56:14;;;;;;;22.60;12.40;;;;;;;1.11;64.28;99917.44;1665833;84;20947;-78
2022/02/23 01:58:41;;;;;;;21.25;12.05;;;;;;;1.08;64.40;99916.30;1665787;84;21555;-78
2022/02/23 02:01:07;;;;;;;20.97;11.43;;;;;;;1.11;64.43;99919.20;1678433;84;21075;-77
2022/02/23 02:03:34;;;;;;;21.12;12.35;;;;;;;1.11;64.47;99917.89;1666168;84;21357;-76
2022/02/23 02:06:01;;;;;;;21.42;13.93;;;;;;;1.10;64.57;99919.66;1688530;84;22235;-76
2022/02/23 02:08:27;;;;;;;19.95;12.63;;;;;;;1.03;64.62;99919.55;1690595;84;20986;-78
2022/02/23 02:10:54;;;;;;;18.15;10.40;;;;;;;0.99;64.80;99925.83;1688340;84;21068;-78
2022/02/23 02:13:21;;;;;;;17.50;9.75;;;;;;;0.98;64.89;99927.20;1687733;84;21644;-78
2022/02/23 02:15:47;;;;;;;17.85;9.68;;;;;;;0.99;64.90;99939.29;1683293;84;21033;-78
2022/02/23 02:18:14;;;;;;;16.67;9.48;;;;;;;1.01;64.93;99932.25;1678487;83;21817;-76
2022/02/23 02:20:40;;;;;;;19.17;9.78;;;;;;;1.00;64.94;99938.38;1666918;84;21108;-78
2022/02/23 02:23:06;;;;;;;17.23;9.03;;;;;;;0.98;64.95;99931.95;1665828;84;21088;-78
2022/02/23 02:25:34;;;;;;;17.32;9.13;;;;;;;0.96;65.00;99939.41;1669586;84;21081;-78
2022/02/23 02:28:02;;;;;;;15.23;9.30;;;;;;;0.96;65.01;99938.95;1669798;84;21048;-77
2022/02/23 02:30:29;;;;;;;18.48;10.00;;;;;;;0.98;65.07;99936.30;1665956;84;21827;-78
2022/02/23 02:32:56;;;;;;;19.90;9.68;;;;;;;0.99;65.11;99949.23;1665851;84;20946;-78
2022/02/23 02:35:22;;;;;;;16.17;9.45;;;;;;;1.00;65.12;99948.31;1693324;82;21061;-78
2022/02/23 02:37:48;;;;;;;21.60;10.23;;;;;;;1.02;65.15;99958.18;1703584;82;21397;-78
2022/02/23 02:40:15;;;;;;;20.20;9.73;;;;;;;1.02;65.15;99957.34;1703861;84;21420;-77
2022/02/23 02:42:41;;;;;;;20.05;9.35;;;;;;;1.02;65.17;99967.28;1708573;82;21849;-78
2022/02/23 02:45:09;;;;;;;17.40;9.25;;;;;;;1.04;65.21;99960.70;1708472;82;21484;-78
2022/02/23 02:47:36;;;;;;;18.10;8.95;;;;;;;1.04;65.27;99960.24;1702851;82;20955;-78
2022/02/23 02:50:05;;;;;;;14.53;8.23;;;;;;;1.06;65.36;99962.77;1703723;82;21088;-78
2022/02/23 02:52:33;;;;;;;15.90;8.88;;;;;;;1.09;65.43;99965.25;1705555;82;20970;-78
2022/02/23 02:55:01;;;;;;;14.87;7.95;;;;;;;1.11;65.49;99959.52;1703809;82;20989;-78
2022/02/23 02:57:28;;;;;;;15.10;8.30;;;;;;;1.11;65.52;99960.34;1709752;81;21014;-77
2022/02/23 02:59:54;;;;;;;14.07;7.67;;;;;;;1.13;65.55;99963.72;1706279;82;20974;-78
2022/02/23 03:02:21;;;;;;;13.90;8.05;;;;;;;1.12;65.52;99955.53;1703947;82;21521;-78
2022/02/23 03:04:47;;;;;;;15.53;9.50;;;;;;;1.11;65.54;99955.15;1704022;82;21057;-78
2022/02/23 03:07:14;;;;;;;20.15;11.78;;;;;;;1.06;65.52;99963.64;1710153;82;22214;-77
2022/02/23 03:09:44;;;;;;;22.67;12.25;;;;;;;0.99;65.52;99957.03;1689084;82;20942;-78
2022/02/23 03:12:10;;;;;;;20.88;12.30;;;;;;;0.92;65.58;99965.19;1725276;82;21045;-77
2022/02/23 03:14:37;;;;;;;20.43;11.73;;;;;;;0.86;65.65;99963.70;1708809;82;21048;-78
2022/02/23 03:17:04;;;;;;;17.90;11.28;;;;;;;0.80;65.83;99958.34;1726690;82;20958;-78
2022/02/23 03:19:31;;;;;;;19.27;11.65;;;;;;;0.78;65.98;99966.67;1729452;82;22757;-77
2022/02/23 03:21:58;;;;;;;20.65;12.93;;;;;;;0.75;66.08;99962.89;1684734;84;21528;-78
2022/02/23 03:24:24;;;;;;;19.57;12.03;;;;;;;0.73;66.04;99971.68;1720985;82;20941;-78
2022/02/23 03:26:51;;;;;;;18.48;11.12;;;;;;;0.72;66.06;99967.40;1713921;82;21049;-77
2022/02/23 03:29:17;;;;;;;15.03;10.05;;;;;;;0.72;66.17;99973.89;1719611;82;21029;-78
2022/02/23 03:31:43;;;;;;;16.77;9.73;;;;;;;0.70;66.19;99979.17;1703980;82;21796;-78
2022/02/23 03:34:10;;;;;;;15.68;9.83;;;;;;;0.68;66.27;99982.76;1720768;82;20998;-78
2022/02/23 03:36:37;;;;;;;15.98;9.75;;;;;;;0.67;66.37;99992.28;1712310;82;21276;-77
2022/02/23 03:39:04;;;;;;;18.02;11.48;;;;;;;0.64;66.51;100004.58;1711739;82;21014;-77
2022/02/23 03:41:30;;;;;;;17.27;10.80;;;;;;;0.56;66.65;100008.36;1719960;82;21500;-77
2022/02/23 03:43:57;;;;;;;19.45;11.00;;;;;;;0.54;66.80;100004.98;1723085;82;22473;-77
2022/02/23 03:46:23;;;;;;;17.80;10.80;;;;;;;0.54;67.01;100010.19;1721040;82;20958;-77
2022/02/23 03:48:49;;;;;;;17.10;10.05;;;;;;;0.55;67.17;100019.66;1704565;82;21013;-77
2022/02/23 03:51:16;;;;;;;15.83;9.55;;;;;;;0.57;67.25;100022.19;1728948;82;21456;-77
2022/02/23 03:53:43;;;;;;;14.75;8.18;;;;;;;0.55;67.30;100015.77;1708341;83;20989;-77
2022/02/23 03:56:38;;;;;;;13.05;7.95;;;;;;;0.55;67.44;100015.77;1717837;83;21821;-77
2022/02/23 03:58:37;;;;;;;12.13;7.30;;;;;;;0.58;67.50;100020.01;1706821;81;21079;-77
2022/02/23 04:01:04;;;;;;;12.82;7.45;;;;;;;0.59;67.53;100013.89;1722429;82;20970;-77
2022/02/23 04:03:30;;;;;;;12.00;6.67;;;;;;;0.61;67.62;100017.27;1713198;82;21042;-77
2022/02/23 04:05:57;;;;;;;7.95;5.28;;;;;;;0.62;67.70;100015.05;1707345;82;21036;-77
2022/02/23 04:08:24;;;;;;;10.53;6.17;;;;;;;0.66;67.85;100016.59;1704575;82;22234;-76
2022/02/23 04:10:50;;;;;;;9.68;5.72;;;;;;;0.69;68.07;100022.12;1703485;82;21033;-76
2022/02/23 04:13:16;;;;;;;8.10;5.67;;;;;;;0.71;68.15;100019.00;1719339;82;21545;-76
2022/02/23 04:15:44;;;;;;;9.18;6.17;;;;;;;0.74;68.25;100022.30;1722934;82;21417;-77
2022/02/23 04:18:11;;;;;;;11.53;6.72;;;;;;;0.77;68.28;100022.61;1712992;82;21390;-76
2022/02/23 04:20:37;;;;;;;14.53;6.78;;;;;;;0.78;68.28;100030.36;1731256;82;22806;-76
2022/02/23 04:23:04;;;;;;;10.58;6.50;;;;;;;0.80;68.32;100027.69;1713489;82;20929;-76
2022/02/23 04:25:31;;;;;;;11.48;7.15;;;;;;;0.82;68.32;100034.50;1703516;83;21488;-76
2022/02/23 04:28:03;;;;;;;13.08;7.72;;;;;;;0.81;68.35;100038.47;1705867;82;21085;-76
2022/02/23 04:30:56;;;;;;;12.37;8.30;;;;;;;0.81;68.40;100044.97;1709117;82;20946;-76
2022/02/23 04:33:22;;;;;;;10.43;7.05;;;;;;;0.81;68.46;100052.77;1700657;82;22214;-77
2022/02/23 04:35:48;;;;;;;12.40;8.88;;;;;;;0.81;68.53;100059.27;1681843;84;21013;-75
2022/02/23 04:38:15;;;;;;;12.30;7.85;;;;;;;0.80;68.64;100058.43;1687840;83;20942;-76
2022/02/23 04:40:43;;;;;;;12.82;8.38;;;;;;;0.82;68.74;100058.36;1668450;84;21081;-77
2022/02/23 04:43:13;;;;;;;12.45;8.55;;;;;;;0.84;68.89;100057.83;1675783;84;20921;-76
2022/02/23 04:45:40;;;;;;;12.75;8.40;;;;;;;0.85;69.00;100057.75;1678489;84;22623;-76
2022/02/23 04:48:07;;;;;;;12.98;8.55;;;;;;;0.88;69.22;100061.99;1693737;84;20939;-76
2022/02/23 04:50:33;;;;;;;12.53;8.48;;;;;;;0.91;69.31;100061.84;1679384;83;21468;-76
2022/02/23 04:53:00;;;;;;;12.85;8.15;;;;;;;0.95;69.40;100067.28;1685799;83;21479;-76
2022/02/23 04:55:27;;;;;;;9.45;6.72;;;;;;;0.98;69.57;100069.77;1674330;84;21402;-76
2022/02/23 04:57:53;;;;;;;9.30;6.30;;;;;;;1.02;69.75;100075.20;1669370;84;22430;-77
2022/02/23 05:00:20;;;;;;;9.08;6.70;;;;;;;1.09;69.98;100079.69;1667743;84;21014;-76
2022/02/23 05:02:47;;;;;;;9.73;6.53;;;;;;;1.14;70.05;100079.00;1671943;83;21096;-76
2022/02/23 05:05:14;;;;;;;9.20;5.87;;;;;;;1.22;70.17;100087.77;1693668;84;20950;-76
2022/02/23 05:07:41;;;;;;;9.70;6.85;;;;;;;1.28;70.32;100091.41;1668591;84;21090;-76
2022/02/23 05:10:08;;;;;;;9.08;6.17;;;;;;;1.33;70.42;100092.86;1660027;85;22251;-76
2022/02/23 05:12:35;;;;;;;8.58;5.75;;;;;;;1.39;70.46;100088.69;1684465;84;21176;-76
2022/02/23 05:15:01;;;;;;;7.92;6.28;;;;;;;1.48;70.54;100096.98;1689046;84;21488;-76
2022/02/23 05:17:28;;;;;;;11.35;6.67;;;;;;;1.54;70.54;100097.98;1667681;84;21453;-76
2022/02/23 05:19:54;;;;;;;10.55;6.55;;;;;;;1.59;70.55;100094.72;1671280;84;21365;-84
2022/02/23 05:22:22;;;;;;;9.53;5.80;;;;;;;1.64;70.52;100094.91;1678742;84;21808;-78
2022/02/23 05:24:49;;;;;;;9.88;6.12;;;;;;;1.71;70.51;100094.98;1670723;84;21017;-71
2022/02/23 05:27:16;;;;;;;9.35;5.60;;;;;;;1.76;70.48;100098.69;1683725;84;20950;-75
2022/02/23 05:29:43;;;;;;;9.70;6.10;;;;;;;1.81;70.40;100095.84;1670441;84;21013;-77
2022/02/23 05:32:09;;;;;;;13.15;6.42;;;;;;;1.84;70.34;100099.17;1674322;84;21044;-70
2022/02/23 05:34:36;;;;;;;10.13;5.45;;;;;;;1.88;70.29;100103.76;1691853;84;21902;-70
2022/02/23 05:37:04;;;;;;;10.72;6.28;;;;;;;1.89;70.22;100110.20;1680550;82;21034;-72
2022/02/23 05:39:30;;;;;;;10.18;6.70;;;;;;;1.90;70.13;100107.97;1674368;84;21516;-70
2022/02/23 05:41:57;;;;;;;8.50;6.03;;;;;;;1.91;70.06;100108.35;1673592;84;21623;-71
2022/02/23 05:44:23;;;;;;;9.18;6.08;;;;;;;1.91;69.99;100116.62;1684661;84;21045;-72
2022/02/23 05:46:50;;;;;;;9.03;5.62;;;;;;;1.94;69.91;100119.10;1669166;85;21855;-75
2022/02/23 05:49:16;;;;;;;10.30;5.85;;;;;;;1.92;69.87;100112.64;1674571;84;21001;-73
2022/02/23 05:51:44;;;;;;;7.53;5.60;;;;;;;1.93;69.86;100115.66;1677040;84;21034;-72
2022/02/23 05:54:10;;;;;;;9.48;6.37;;;;;;;1.94;69.85;100117.80;1683764;84;20982;-76
2022/02/23 05:56:37;;;;;;;11.10;6.65;;;;;;;1.97;69.81;100117.64;1673104;84;21049;-74
2022/02/23 05:59:03;;;;;;;11.57;6.75;;;;;;;2.00;69.82;100119.63;1665616;84;22203;-74
2022/02/23 06:01:31;;;;;;;11.12;7.35;;;;;;;2.02;69.86;100116.95;1665377;86;21054;-74
2022/02/23 06:03:58;;;;;;;11.53;7.05;;;;;;;2.06;69.91;100119.81;1665703;84;21018;-74
2022/02/23 06:06:26;;;;;;;15.15;8.68;;;;;;;2.10;69.95;100127.84;1676798;84;20997;-74
2022/02/23 06:08:53;;;;;;;14.05;10.10;;;;;;;2.16;69.98;100129.33;1680833;84;20955;-74
2022/02/23 06:11:19;;;;;;;13.65;7.97;;;;;;;2.20;69.97;100129.09;1693355;84;22482;-74
2022/02/23 06:13:51;;;;;;;11.10;7.70;;;;;;;2.25;70.00;100135.39;1693304;83;20858;-73
2022/02/23 06:16:14;;;;;;;10.45;7.42;;;;;;;2.30;69.95;100135.99;1675751;84;21049;-74
2022/02/23 06:18:41;;;;;;;9.55;6.83;;;;;;;2.36;69.93;100135.70;1693632;83;20990;-74
2022/02/23 06:21:08;;;;;;;13.22;8.20;;;;;;;2.43;69.89;100138.86;1693440;84;21072;-74
2022/02/23 06:23:34;;;;;;;11.08;6.60;;;;;;;2.50;69.77;100139.76;1676326;84;22470;-74
2022/02/23 06:26:01;;;;;;;8.05;6.40;;;;;;;2.57;69.75;100143.75;1666052;84;21009;-74
2022/02/23 06:28:28;;;;;;;8.75;6.12;;;;;;;2.65;69.65;100142.53;1665963;85;21006;-74
2022/02/23 06:30:55;;;;;;;10.60;6.47;;;;;;;2.71;69.49;100140.47;1665157;84;21018;-73
2022/02/23 06:33:23;;;;;;;9.18;6.03;;;;;;;2.79;69.40;100149.19;1672555;84;21014;-73
2022/02/23 06:35:52;;;;;;;9.93;6.62;;;;;;;2.85;69.24;100148.42;1669799;84;22200;-75
2022/02/23 06:38:22;;;;;;;9.83;6.72;;;;;;;2.93;69.05;100149.34;1717351;82;21065;-74
2022/02/23 06:40:50;;;;;;;10.60;6.70;;;;;;;2.99;68.79;100143.81;1710161;82;21055;-74
2022/02/23 06:43:19;;;;;;;9.50;7.10;;;;;;;3.04;68.63;100152.23;1719797;82;20993;-74
2022/02/23 06:45:49;;;;;;;35.73;19.52;;;;;;;3.12;68.56;100155.75;1718080;82;21002;-74
2022/02/23 06:48:19;;;;;;;13.20;7.80;;;;;;;3.18;68.38;100157.17;1733738;82;22484;-74
2022/02/23 06:50:48;;;;;;;12.13;7.97;;;;;;;3.25;68.09;100167.22;1696586;83;21425;-75
2022/02/23 06:53:18;;;;;;;20.85;12.63;;;;;;;3.33;67.69;100160.30;1716026;82;20974;-74
2022/02/23 06:55:47;;;;;;;11.45;7.20;;;;;;;3.41;67.58;100162.05;1712671;82;21044;-75
2022/02/23 06:58:26;;;;;;;14.70;8.75;;;;;;;3.50;66.95;100166.78;1720655;82;20954;-75
2022/02/23 07:00:52;;;;;;;14.93;8.90;;;;;;;3.53;66.63;100171.83;1711003;82;22474;-74
2022/02/23 07:03:18;;;;;;;13.15;7.87;;;;;;;3.58;66.14;100169.83;1733401;82;21511;-74
2022/02/23 07:05:45;;;;;;;15.23;10.48;;;;;;;3.65;66.02;100175.55;1710634;82;20926;-74
2022/02/23 07:08:11;;;;;;;12.58;9.03;;;;;;;3.69;65.91;100179.23;1719392;82;21424;-74
2022/02/23 07:10:38;;;;;;;10.20;6.10;;;;;;;3.76;65.75;100179.72;1719251;82;21040;-74
2022/02/23 07:13:07;;;;;;;10.78;6.00;;;;;;;3.82;65.39;100180.70;1704307;84;22240;-74
2022/02/23 07:15:34;;;;;;;11.90;6.65;;;;;;;3.90;65.25;100187.66;1704175;83;20958;-75
2022/02/23 07:18:01;;;;;;;9.78;5.70;;;;;;;3.97;65.17;100190.80;1707727;82;21583;-75
2022/02/23 07:20:27;;;;;;;10.80;5.45;;;;;;;4.06;64.87;100188.14;1707753;82;21096;-74
2022/02/23 07:22:54;;;;;;;8.80;5.20;;;;;;;4.11;64.30;100179.56;1712547;81;20982;-77
2022/02/23 07:25:20;;;;;;;9.33;5.15;;;;;;;4.14;63.67;100182.83;1692911;82;22763;-72
2022/02/23 07:27:58;;;;;;;10.15;5.40;;;;;;;4.14;63.46;100188.06;1712875;82;21029;-82
2022/02/23 07:30:27;;;;;;;7.30;4.58;;;;;;;4.13;63.14;100182.46;1715971;82;21040;-79
2022/02/23 07:32:54;;;;;;;7.70;4.97;;;;;;;4.15;62.55;100187.59;1704394;82;20966;-77
2022/02/23 07:35:21;;;;;;;8.53;4.80;;;;;;;4.15;61.93;100190.21;1706359;82;21049;-80
2022/02/23 07:37:52;;;;;;;8.15;4.30;;;;;;;4.16;61.70;100184.08;1710968;81;22233;-77
2022/02/23 07:40:20;;;;;;;8.68;4.53;;;;;;;4.20;61.66;100187.73;1712100;82;21017;-82
2022/02/23 07:42:47;;;;;;;7.83;4.30;;;;;;;4.29;61.43;100186.37;1705197;82;21460;-80
2022/02/23 07:45:15;;;;;;;6.15;4.22;;;;;;;4.32;60.68;100191.42;1709586;82;21409;-81
2022/02/23 07:47:43;;;;;;;5.62;3.45;;;;;;;4.38;60.61;100188.47;1714802;82;21432;-81
2022/02/23 07:50:14;;;;;;;5.90;4.08;;;;;;;4.47;60.61;100189.72;1711664;82;21802;-82
2022/02/23 07:52:42;;;;;;;6.58;4.42;;;;;;;4.55;60.16;100184.91;1723346;82;20978;-76
2022/02/23 07:55:10;;;;;;;6.47;3.90;;;;;;;4.60;60.28;100186.30;1716843;82;21024;-76
2022/02/23 07:57:37;;;;;;;5.62;3.60;;;;;;;4.72;59.73;100185.20;1704413;82;20966;-75
2022/02/23 08:00:07;;;;;;;6.55;3.52;;;;;;;4.80;59.00;100175.98;1729392;82;20970;-76
2022/02/23 08:02:37;;;;;;;5.85;3.67;;;;;;;4.89;58.38;100178.53;1707649;81;21795;-76
2022/02/23 08:05:05;;;;;;;5.17;3.65;;;;;;;4.92;57.72;100174.41;1710077;82;20959;-78
2022/02/23 08:07:34;;;;;;;6.47;3.70;;;;;;;5.01;57.83;100194.81;1733589;82;20998;-78
2022/02/23 08:10:03;;;;;;;9.88;4.30;;;;;;;5.06;57.07;100190.63;1714409;82;21454;-78
2022/02/23 08:12:30;;;;;;;6.22;3.67;;;;;;;5.04;56.67;100184.65;1717824;81;21053;-74
2022/02/23 08:19:30;;;;;;;5.45;3.60;;;;;;;5.05;56.88;100185.86;1714752;82;21829;-76
2022/02/23 08:20:11;;;;;;;6.45;3.80;;;;;;;5.11;56.48;100189.41;1732013;82;21045;-75
2022/02/23 08:22:38;;;;;;;6.37;4.28;;;;;;;5.10;56.28;100192.11;1716229;82;21084;-78
2022/02/23 08:25:06;;;;;;;7.47;3.92;;;;;;;5.08;56.28;100190.06;1715308;82;21380;-81
2022/02/23 08:27:38;;;;;;;7.70;4.00;;;;;;;5.15;55.54;100189.61;1717639;82;21835;-82
2022/02/23 08:30:08;;;;;;;6.42;3.85;;;;;;;5.26;55.39;100199.91;1735380;82;20965;-81
2022/02/23 08:32:34;;;;;;;4.97;3.15;;;;;;;5.33;54.74;100188.97;1737584;82;20970;-81
2022/02/23 08:35:01;;;;;;;5.60;3.40;;;;;;;5.41;54.08;100194.59;1721716;82;21644;-82
2022/02/23 08:37:27;;;;;;;5.22;3.60;;;;;;;5.49;53.97;100189.33;1720947;82;21478;-84
2022/02/23 08:39:54;;;;;;;5.37;3.20;;;;;;;5.56;53.62;100195.89;1733538;82;22956;-89
2022/02/23 08:42:21;;;;;;;6.92;3.95;;;;;;;5.52;53.45;100195.72;1704324;83;21480;-77
2022/02/23 08:44:47;;;;;;;6.30;3.87;;;;;;;5.55;53.65;100185.04;1699731;82;21175;-80
2022/02/23 08:47:15;;;;;;;5.42;4.00;;;;;;;5.60;53.84;100194.31;1688448;84;20974;-81
2022/02/23 08:49:42;;;;;;;7.75;4.28;;;;;;;5.65;53.59;100188.30;1681481;84;21077;-84
2022/02/23 08:52:08;;;;;;;5.80;3.90;;;;;;;5.67;53.56;100194.28;1701279;83;21836;-81
2022/02/23 08:54:35;;;;;;;5.95;3.98;;;;;;;5.67;53.56;100191.66;1707746;83;20866;-79
2022/02/23 08:57:02;;;;;;;5.45;3.85;;;;;;;5.69;53.56;100193.74;1724009;83;20963;-80
2022/02/23 08:59:29;;;;;;;5.17;3.40;;;;;;;5.71;53.44;100205.44;1706717;82;21111;-83
2022/02/23 09:01:56;;;;;;;6.45;3.90;;;;;;;5.70;53.59;100203.75;1731525;82;20966;-83
2022/02/23 09:04:23;;;;;;;6.67;3.85;;;;;;;5.77;53.84;100198.95;1730764;83;21837;-82
2022/02/23 09:06:59;;;;;;;4.83;3.20;;;;;;;5.95;53.81;100207.02;1707613;83;21093;-84
2022/02/23 09:09:30;;;;;;;5.05;3.05;;;;;;;6.11;52.57;100204.27;1710970;83;21096;-80
2022/02/23 09:11:57;;;;;;;3.87;2.90;;;;;;;6.22;52.21;100204.42;1714621;83;20978;-80
2022/02/23 09:14:23;;;;;;;4.78;3.02;;;;;;;6.35;52.04;100200.53;1707653;83;20991;-80
2022/02/23 09:16:50;;;;;;;4.33;2.80;;;;;;;6.50;51.44;100209.58;1715850;82;21759;-79
2022/02/23 09:19:17;;;;;;;5.78;2.65;;;;;;;6.55;50.85;100216.66;1719269;82;20954;-80
2022/02/23 09:21:43;;;;;;;6.40;3.00;;;;;;;6.58;49.31;100205.15;1725078;82;20950;-78
2022/02/23 09:24:11;;;;;;;4.37;2.70;;;;;;;6.55;48.75;100216.66;1713317;83;21029;-76
2022/02/23 09:26:38;;;;;;;5.35;2.95;;;;;;;6.55;49.13;100215.82;1692422;83;21513;-76
2022/02/23 09:29:04;;;;;;;3.70;2.15;;;;;;;6.55;48.08;100215.82;1692566;84;22561;-74
2022/02/23 09:31:31;;;;;;;4.70;2.65;;;;;;;6.43;47.68;100214.84;1701889;83;20993;-76
2022/02/23 09:34:03;;;;;;;3.62;2.40;;;;;;;6.43;47.58;100219.25;1728370;83;21061;-79
2022/02/23 09:36:38;;;;;;;4.83;2.90;;;;;;;6.49;47.79;100218.86;1728217;82;20969;-79
2022/02/23 09:39:03;;;;;;;6.33;3.22;;;;;;;6.54;48.14;100214.98;1706697;83;21066;-74
2022/02/23 09:41:30;;;;;;;4.35;2.40;;;;;;;6.67;47.81;100220.30;1705337;82;21827;-77
2022/02/23 09:43:56;;;;;;;4.22;2.22;;;;;;;6.74;47.32;100213.67;1697612;83;21080;-81
2022/02/23 09:46:23;;;;;;;4.58;2.80;;;;;;;6.79;46.50;100215.54;1722940;83;20958;-71
2022/02/23 09:48:52;;;;;;;4.97;2.70;;;;;;;6.78;46.90;100219.11;1718380;83;21082;-77
2022/02/23 09:51:19;;;;;;;4.20;2.80;;;;;;;6.88;47.75;100213.61;1730106;83;21014;-74
2022/02/23 09:53:46;;;;;;;5.72;3.40;;;;;;;6.96;46.05;100220.98;1706738;83;21837;-75
2022/02/23 09:56:17;;;;;;;4.03;2.50;;;;;;;6.93;45.20;100212.45;1706750;81;20998;-75
2022/02/23 09:58:44;;;;;;;4.42;2.60;;;;;;;6.93;45.69;100211.14;1701740;83;21057;-75
2022/02/23 10:01:13;;;;;;;4.83;2.40;;;;;;;7.04;45.43;100220.45;1724027;83;21093;-84
2022/02/23 10:03:44;;;;;;;4.50;2.30;;;;;;;7.15;43.15;100212.72;1700987;83;21062;-73
2022/02/23 10:06:33;;;;;;;3.85;2.10;;;;;;;7.15;43.07;100228.48;1710837;83;22002;-76
2022/02/23 10:09:08;;;;;;;3.60;2.00;;;;;;;7.18;42.90;100221.69;1706860;83;21085;-76
2022/02/23 10:11:36;;;;;;;3.20;2.00;;;;;;;7.24;42.27;100222.60;1711032;83;21021;-72
2022/02/23 10:14:03;;;;;;;3.52;1.80;;;;;;;7.31;42.00;100218.59;1712170;83;20954;-74
2022/02/23 10:16:39;;;;;;;3.60;1.82;;;;;;;7.33;40.66;100214.53;1703130;82;21010;-74
2022/02/23 10:19:17;;;;;;;3.12;2.02;;;;;;;7.26;39.59;100212.82;1724716;83;21869;-73
2022/02/23 10:21:46;;;;;;;3.37;2.33;;;;;;;7.29;41.27;100215.23;1704024;82;20982;-70
2022/02/23 10:24:28;;;;;;;3.22;1.70;;;;;;;7.47;40.14;100211.81;1705575;83;20954;-76
2022/02/23 10:27:05;;;;;;;3.67;2.00;;;;;;;7.57;38.45;100212.02;1705904;83;21121;-75
2022/02/23 10:29:53;;;;;;;2.90;1.67;;;;;;;7.57;39.08;100218.59;1712706;82;21521;-75
2022/02/23 10:32:19;;;;;;;2.60;1.80;;;;;;;7.61;39.76;100210.37;1704411;83;21860;-74
2022/02/23 10:34:47;;;;;;;3.45;2.02;;;;;;;7.77;39.36;100217.20;1701458;81;20950;-75
2022/02/23 10:37:21;;;;;;;3.55;1.87;;;;;;;7.79;38.20;100217.92;1705684;81;21100;-76
2022/02/23 10:39:50;;;;;;;;;;;;;;;7.64;38.84;100205.40;1705509;83;21419;-76
2022/02/23 10:42:20;;;;;;;4.08;2.30;;;;;;;7.65;38.12;100207.91;1724653;82;20819;-74
2022/02/23 10:44:49;;;;;;;3.45;1.95;;;;;;;7.71;38.01;100203.52;1715310;82;21829;-74
2022/02/23 10:47:33;;;;;;;3.12;2.02;;;;;;;7.81;37.91;100215.55;1738725;81;20853;-76
2022/02/23 10:50:20;;;;;;;3.50;1.92;;;;;;;7.94;38.13;100207.17;1721082;82;21012;-75
2022/02/23 10:52:53;;;;;;;3.95;2.00;;;;;;;8.09;37.71;100205.70;1738431;81;21232;-77
2022/02/23 10:55:25;;;;;;;3.27;1.62;;;;;;;8.24;38.09;100221.23;1738595;81;21036;-78
2022/02/23 10:58:02;;;;;;;2.92;1.82;;;;;;;8.37;37.79;100208.05;1746419;81;22624;-75
2022/02/23 11:00:35;;;;;;;4.10;2.30;;;;;;;8.40;38.55;100208.33;1734766;81;21076;-77
2022/02/23 11:03:02;;;;;;;3.83;2.12;;;;;;;8.47;37.08;100205.59;1749098;80;21028;-76
2022/02/23 11:05:31;;;;;;;3.30;2.00;;;;;;;8.46;38.11;100202.59;1741373;81;21012;-75
2022/02/23 11:08:02;;;;;;;3.05;1.67;;;;;;;8.49;37.55;100199.73;1746922;81;21000;-76
2022/02/23 11:10:28;;;;;;;4.10;2.08;;;;;;;8.59;37.84;100196.33;1754933;81;21810;-75
2022/02/23 11:12:57;;;;;;;3.70;2.00;;;;;;;8.78;37.95;100189.67;1706504;82;21424;-75
2022/02/23 11:15:26;;;;;;;2.98;1.77;;;;;;;8.85;37.95;100201.43;1735231;81;21047;-76
2022/02/23 11:17:54;;;;;;;3.42;1.80;;;;;;;8.85;37.84;100190.90;1749326;81;20949;-76
2022/02/23 11:20:29;;;;;;;4.78;2.20;;;;;;;8.88;36.32;100192.00;1744269;81;21090;-74
2022/02/23 11:22:59;;;;;;;4.85;1.82;;;;;;;8.94;37.40;100194.16;1744084;81;21812;-76
2022/02/23 11:25:38;;;;;;;3.87;1.90;;;;;;;9.11;36.61;100208.22;1757651;81;20984;-77
2022/02/23 11:28:24;;;;;;;3.55;1.92;;;;;;;9.25;36.29;100201.05;1748774;80;21040;-77
2022/02/23 11:30:57;;;;;;;3.17;1.87;;;;;;;9.37;36.35;100191.73;1758572;81;21020;-77
2022/02/23 11:33:49;;;;;;;2.77;1.70;;;;;;;9.50;35.85;100185.51;1752265;81;21106;-76
2022/02/23 11:36:39;;;;;;;4.28;1.72;;;;;;;9.61;35.44;100186.34;1735180;81;22481;-76
2022/02/23 11:39:09;;;;;;;4.08;2.22;;;;;;;9.68;34.62;100191.50;1738756;81;20972;-78